createdAt,value
2023-03-11T00:01:05.223Z,0.50
2023-03-11T00:03:32.226Z,1.00
2023-03-11T00:06:01.837Z,0.00
2023-03-11T00:08:28.860Z,0.25
2023-03-11T00:10:58.224Z,0.00
2023-03-11T00:13:25.145Z,0.00
2023-03-11T00:15:54.282Z,1.00
2023-03-11T00:18:21.799Z,1.00
2023-03-11T00:20:48.700Z,1.00
2023-03-11T00:23:15.978Z,1.00
2023-03-11T00:25:45.208Z,1.00
2023-03-11T00:28:13.017Z,1.25
2023-03-11T00:30:42.236Z,1.00
2023-03-11T00:33:11.642Z,0.00
2023-03-11T00:35:41.343Z,1.00
2023-03-11T00:38:15.698Z,1.00
2023-03-11T00:40:43.533Z,1.00
2023-03-11T00:43:10.754Z,1.00
2023-03-11T00:45:37.860Z,1.00
2023-03-11T00:48:05.180Z,0.00
2023-03-11T00:50:34.700Z,0.00
2023-03-11T00:53:02.113Z,1.00
2023-03-11T00:55:31.648Z,1.00
2023-03-11T00:58:02.892Z,1.00
2023-03-11T01:00:42.784Z,0.00
2023-03-11T01:03:10.208Z,0.00
2023-03-11T01:05:37.214Z,0.00
2023-03-11T01:08:04.966Z,0.25
2023-03-11T01:10:33.733Z,1.00
2023-03-11T01:13:00.903Z,1.00
2023-03-11T01:15:33.985Z,2.50
2023-03-11T01:18:01.502Z,1.00
2023-03-11T01:20:28.722Z,1.00
2023-03-11T01:22:56.014Z,1.00
2023-03-11T01:25:24.197Z,0.00
2023-03-11T01:27:51.680Z,1.00
2023-03-11T01:30:24.940Z,0.00
2023-03-11T01:32:54.388Z,3.00
2023-03-11T01:35:23.663Z,2.75
2023-03-11T01:37:50.665Z,1.00
2023-03-11T01:40:28.917Z,0.00
2023-03-11T01:42:57.416Z,0.00
2023-03-11T01:45:31.187Z,0.00
2023-03-11T01:47:58.488Z,0.00
2023-03-11T01:50:31.034Z,0.00
2023-03-11T01:52:58.095Z,0.00
2023-03-11T01:55:25.018Z,1.50
2023-03-11T01:57:53.207Z,3.00
2023-03-11T02:00:20.574Z,1.00
2023-03-11T02:02:51.323Z,0.00
2023-03-11T02:05:21.236Z,0.00
2023-03-11T02:07:50.967Z,2.00
2023-03-11T02:10:20.558Z,1.00
2023-03-11T02:12:50.848Z,1.00
2023-03-11T02:15:26.217Z,0.00
2023-03-11T02:17:53.378Z,1.00
2023-03-11T02:20:41.697Z,0.00
2023-03-11T02:23:14.582Z,0.00
2023-03-11T02:25:48.026Z,0.00
2023-03-11T02:28:17.432Z,0.00
2023-03-11T02:30:44.944Z,0.00
2023-03-11T02:33:13.991Z,0.00
2023-03-11T02:35:41.719Z,1.00
2023-03-11T02:38:10.105Z,0.00
2023-03-11T02:40:52.169Z,1.00
2023-03-11T02:43:32.418Z,1.00
2023-03-11T02:45:59.986Z,1.00
2023-03-11T02:48:29.728Z,0.00
2023-03-11T02:50:57.655Z,0.00
2023-03-11T02:53:27.788Z,0.00
2023-03-11T02:55:54.833Z,1.00
2023-03-11T02:58:21.731Z,1.00
2023-03-11T03:00:48.855Z,1.00
2023-03-11T03:03:18.393Z,0.00
2023-03-11T03:05:45.877Z,0.00
2023-03-11T03:08:13.223Z,0.50
2023-03-11T03:10:41.476Z,1.00
2023-03-11T03:13:08.558Z,1.00
2023-03-11T03:15:35.548Z,1.00
2023-03-11T03:18:02.481Z,1.00
2023-03-11T03:20:29.787Z,1.00
2023-03-11T03:22:59.856Z,1.00
2023-03-11T03:25:29.769Z,2.50
2023-03-11T03:27:59.371Z,2.25
2023-03-11T03:30:26.866Z,1.00
2023-03-11T03:32:54.279Z,2.75
2023-03-11T03:35:22.056Z,1.00
2023-03-11T03:38:10.295Z,1.00
2023-03-11T03:40:39.416Z,1.00
2023-03-11T03:43:07.650Z,1.00
2023-03-11T03:45:36.205Z,0.00
2023-03-11T03:48:03.332Z,0.00
2023-03-11T03:50:34.013Z,0.00
2023-03-11T03:53:01.027Z,1.75
2023-03-11T03:55:28.119Z,0.00
2023-03-11T03:57:56.389Z,0.50
2023-03-11T04:00:26.177Z,2.50
2023-03-11T04:02:58.931Z,3.00
2023-03-11T04:05:34.243Z,1.00
2023-03-11T04:08:01.213Z,3.00
2023-03-11T04:10:28.696Z,3.00
2023-03-11T04:12:55.896Z,2.00
2023-03-11T04:15:23.323Z,1.00
2023-03-11T04:17:50.521Z,0.25
2023-03-11T04:20:17.786Z,3.25
2023-03-11T04:22:48.420Z,1.50
2023-03-11T04:25:16.032Z,1.00
2023-03-11T04:27:42.980Z,1.75
2023-03-11T04:30:11.309Z,3.50
2023-03-11T04:32:38.458Z,1.00
2023-03-11T04:35:06.369Z,1.00
2023-03-11T04:37:33.780Z,1.00
2023-03-11T04:40:01.194Z,1.00
2023-03-11T04:42:29.984Z,1.00
2023-03-11T04:44:57.507Z,1.00
2023-03-11T04:47:25.815Z,0.00
2023-03-11T04:49:52.719Z,0.00
2023-03-11T04:52:19.666Z,0.00
2023-03-11T04:54:46.588Z,1.00
2023-03-11T04:59:56.251Z,1.00
2023-03-11T05:02:23.463Z,1.00
2023-03-11T05:04:55.087Z,1.00
2023-03-11T05:07:22.096Z,1.00
2023-03-11T05:09:49.151Z,1.25
2023-03-11T05:12:16.213Z,3.00
2023-03-11T05:14:47.837Z,4.00
2023-03-11T05:17:15.323Z,3.00
2023-03-11T05:19:42.230Z,2.00
2023-03-11T05:22:16.834Z,1.00
2023-03-11T05:24:44.344Z,1.00
2023-03-11T05:27:11.282Z,1.00
2023-03-11T05:29:41.688Z,1.00
2023-03-11T05:32:13.046Z,1.00
2023-03-11T05:34:42.161Z,4.00
2023-03-11T05:37:09.678Z,2.00
2023-03-11T05:39:36.778Z,0.00
2023-03-11T05:42:05.133Z,3.75
2023-03-11T05:44:32.780Z,2.50
2023-03-11T05:47:00.231Z,2.50
2023-03-11T05:49:28.031Z,1.25
2023-03-11T05:51:58.646Z,1.00
2023-03-11T05:54:27.351Z,2.00
2023-03-11T05:56:54.900Z,2.00
2023-03-11T05:59:23.126Z,2.00
2023-03-11T06:01:55.815Z,3.00
2023-03-11T06:04:24.614Z,1.00
2023-03-11T06:06:51.595Z,1.00
2023-03-11T06:09:21.189Z,0.00
2023-03-11T06:11:48.377Z,0.00
2023-03-11T06:14:17.011Z,0.00
2023-03-11T06:16:47.384Z,0.00
2023-03-11T06:19:14.398Z,1.00
2023-03-11T06:21:45.852Z,3.00
2023-03-11T06:24:13.763Z,1.00
2023-03-11T06:26:40.736Z,2.00
2023-03-11T06:29:13.096Z,3.00
2023-03-11T06:31:41.447Z,5.00
2023-03-11T06:34:12.233Z,3.00
2023-03-11T06:36:39.358Z,2.75
2023-03-11T06:39:06.295Z,1.00
2023-03-11T06:41:35.337Z,4.00
2023-03-11T06:44:03.684Z,3.00
2023-03-11T06:46:30.834Z,1.00
2023-03-11T06:48:58.252Z,1.75
2023-03-11T06:51:25.336Z,1.00
2023-03-11T06:53:53.948Z,0.00
2023-03-11T06:56:23.844Z,0.00
2023-03-11T06:58:56.273Z,0.00
2023-03-11T07:01:26.814Z,0.00
2023-03-11T07:03:55.656Z,5.25
2023-03-11T07:06:26.695Z,3.00
2023-03-11T07:09:00.189Z,7.50
2023-03-11T07:11:28.863Z,6.00
2023-03-11T07:14:06.405Z,5.00
2023-03-11T07:16:39.441Z,2.00
2023-03-11T07:19:13.325Z,0.00
2023-03-11T07:21:42.247Z,2.00
2023-03-11T07:24:13.027Z,2.00
2023-03-11T07:26:43.801Z,1.00
2023-03-11T07:29:11.276Z,6.00
2023-03-11T07:31:38.675Z,8.00
2023-03-11T07:34:07.538Z,8.00
2023-03-11T07:36:34.422Z,3.00
2023-03-11T07:39:04.642Z,2.00
2023-03-11T07:41:33.713Z,2.00
2023-03-11T07:44:04.023Z,5.75
2023-03-11T07:46:31.941Z,6.00
2023-03-11T07:48:59.051Z,4.00
2023-03-11T07:51:28.806Z,6.00
2023-03-11T07:53:59.340Z,6.75
2023-03-11T07:56:29.754Z,11.75
2023-03-11T07:58:59.074Z,12.00
2023-03-11T08:01:31.040Z,10.00
2023-03-11T08:03:58.157Z,2.75
2023-03-11T08:06:28.206Z,2.50
2023-03-11T08:08:55.239Z,2.00
2023-03-11T08:11:22.142Z,10.25
2023-03-11T08:13:50.206Z,9.00
2023-03-11T08:16:19.763Z,11.00
2023-03-11T08:18:48.364Z,13.50
2023-03-11T08:21:19.352Z,14.00
2023-03-11T08:23:46.408Z,6.25
2023-03-11T08:26:15.865Z,3.00
2023-03-11T08:28:43.910Z,0.75
2023-03-11T08:31:19.890Z,3.00
2023-03-11T08:33:50.187Z,3.00
2023-03-11T08:36:17.558Z,3.00
2023-03-11T08:38:44.794Z,3.00
2023-03-11T08:41:11.962Z,9.50
2023-03-11T08:43:39.283Z,4.75
2023-03-11T08:46:07.275Z,10.00
2023-03-11T08:48:36.460Z,2.75
2023-03-11T08:51:10.447Z,0.00
2023-03-11T08:53:37.920Z,5.00
2023-03-11T08:56:05.558Z,13.00
2023-03-11T08:58:32.596Z,6.25
2023-03-11T09:01:00.185Z,10.25
2023-03-11T09:03:27.233Z,12.00
2023-03-11T09:06:01.416Z,8.00
2023-03-11T09:08:29.213Z,6.00
2023-03-11T09:10:56.336Z,8.00
2023-03-11T09:13:23.822Z,8.00
2023-03-11T09:15:51.957Z,5.00
2023-03-11T09:18:19.716Z,4.00
2023-03-11T09:20:46.969Z,2.50
2023-03-11T09:23:16.094Z,4.00
2023-03-11T09:25:42.977Z,8.00
2023-03-11T09:28:10.187Z,4.00
2023-03-11T09:30:37.151Z,3.50
2023-03-11T09:33:04.298Z,2.00
2023-03-11T09:35:31.287Z,1.00
2023-03-11T09:37:58.433Z,4.00
2023-03-11T09:40:28.330Z,4.00
2023-03-11T09:43:27.284Z,4.00
2023-03-11T09:46:22.695Z,2.00
2023-03-11T09:49:00.608Z,8.00
2023-03-11T09:51:31.450Z,9.75
2023-03-11T09:54:12.861Z,5.50
2023-03-11T09:56:44.443Z,10.00
2023-03-11T09:59:19.542Z,5.00
2023-03-11T10:01:49.907Z,7.00
2023-03-11T10:04:32.173Z,3.00
2023-03-11T10:07:02.306Z,7.00
2023-03-11T10:09:48.343Z,4.00
2023-03-11T10:12:39.516Z,3.00
2023-03-11T10:15:27.962Z,2.25
2023-03-11T10:18:13.558Z,0.00
2023-03-11T10:20:40.452Z,5.75
2023-03-11T10:23:19.078Z,2.50
2023-03-11T10:26:07.953Z,8.00
2023-03-11T10:28:47.010Z,12.00
2023-03-11T10:31:24.890Z,5.50
2023-03-11T10:34:13.742Z,6.50
2023-03-11T10:37:05.381Z,10.50
2023-03-11T10:39:34.307Z,10.00
2023-03-11T10:42:04.070Z,4.25
2023-03-11T10:44:39.947Z,4.00
2023-03-11T10:47:13.669Z,6.50
2023-03-11T10:49:40.628Z,8.25
2023-03-11T10:52:07.569Z,4.00
2023-03-11T10:54:38.450Z,3.00
2023-03-11T10:57:27.452Z,9.50
2023-03-11T10:59:56.786Z,12.50
2023-03-11T11:02:31.094Z,6.25
2023-03-11T11:05:16.413Z,7.75
2023-03-11T11:07:48.874Z,11.50
2023-03-11T11:10:22.079Z,7.75
2023-03-11T11:13:03.532Z,1.50
2023-03-11T11:15:36.924Z,2.00
2023-03-11T11:18:21.132Z,1.25
2023-03-11T11:21:01.280Z,9.50
2023-03-11T11:23:32.550Z,5.00
2023-03-11T11:26:04.240Z,2.00
2023-03-11T11:28:33.118Z,6.00
2023-03-11T11:31:06.497Z,3.00
2023-03-11T11:33:40.494Z,5.50
2023-03-11T11:36:16.137Z,2.00
2023-03-11T11:38:43.792Z,4.50
2023-03-11T11:41:18.731Z,2.75
2023-03-11T11:44:01.389Z,3.00
2023-03-11T11:46:34.130Z,2.75
2023-03-11T11:49:16.144Z,1.00
2023-03-11T11:52:28.956Z,1.00
2023-03-11T11:55:07.782Z,6.00
2023-03-11T11:57:34.863Z,4.00
2023-03-11T12:00:03.057Z,3.00
2023-03-11T12:03:09.939Z,2.75
2023-03-11T12:05:52.722Z,1.00
2023-03-11T12:08:54.793Z,1.00
2023-03-11T12:11:47.716Z,2.75
2023-03-11T12:14:26.933Z,1.00
2023-03-11T12:16:58.009Z,2.50
2023-03-11T12:19:37.557Z,2.00
2023-03-11T12:22:30.599Z,2.00
2023-03-11T12:25:04.369Z,0.75
2023-03-11T12:27:57.452Z,1.00
2023-03-11T12:30:33.403Z,5.75
2023-03-11T12:33:14.874Z,4.00
2023-03-11T12:35:49.551Z,1.00
2023-03-11T12:38:29.590Z,0.00
2023-03-11T12:41:05.891Z,1.00
2023-03-11T12:43:32.880Z,1.00
2023-03-11T12:46:05.317Z,7.25
2023-03-11T12:49:05.493Z,3.75
2023-03-11T12:51:32.353Z,1.25
2023-03-11T12:53:59.376Z,2.00
2023-03-11T12:56:50.963Z,1.00
2023-03-11T12:59:42.380Z,0.00
2023-03-11T13:02:31.515Z,1.00
2023-03-11T13:05:28.694Z,6.00
2023-03-11T13:08:14.879Z,6.75
2023-03-11T13:10:50.657Z,3.00
2023-03-11T13:13:37.957Z,3.25
2023-03-11T13:16:37.855Z,9.50
2023-03-11T13:19:26.617Z,3.25
2023-03-11T13:22:00.230Z,1.00
2023-03-11T13:24:27.225Z,1.75
2023-03-11T13:27:01.354Z,8.25
2023-03-11T13:29:49.458Z,3.25
2023-03-11T13:32:29.775Z,2.00
2023-03-11T13:35:24.483Z,3.00
2023-03-11T13:38:25.719Z,5.00
2023-03-11T13:40:53.624Z,4.75
2023-03-11T13:43:23.655Z,3.00
2023-03-11T13:46:21.182Z,7.75
2023-03-11T13:48:51.002Z,6.00
2023-03-11T13:51:32.633Z,1.25
2023-03-11T13:54:30.057Z,2.00
2023-03-11T13:57:02.186Z,2.00
2023-03-11T13:59:35.364Z,4.75
2023-03-11T14:02:17.418Z,3.00
2023-03-11T14:04:51.866Z,5.50
2023-03-11T14:07:27.851Z,3.25
2023-03-11T14:10:22.591Z,3.00
2023-03-11T14:12:50.043Z,2.75
2023-03-11T14:15:27.502Z,2.00
2023-03-11T14:18:14.735Z,3.50
2023-03-11T14:20:52.684Z,7.50
2023-03-11T14:23:20.890Z,3.00
2023-03-11T14:25:47.817Z,2.00
2023-03-11T14:28:21.687Z,1.00
2023-03-11T14:31:00.046Z,4.75
2023-03-11T14:33:27.866Z,4.75
2023-03-11T14:36:02.597Z,5.00
2023-03-11T14:38:31.961Z,10.75
2023-03-11T14:41:02.338Z,4.00
2023-03-11T14:43:34.858Z,1.00
2023-03-11T14:46:04.404Z,4.00
2023-03-11T14:48:40.198Z,2.50
2023-03-11T14:51:36.608Z,0.50
2023-03-11T14:54:17.841Z,2.00
2023-03-11T14:56:52.915Z,3.00
2023-03-11T14:59:28.938Z,4.00
2023-03-11T15:02:05.163Z,3.00
2023-03-11T15:04:38.793Z,1.00
2023-03-11T15:07:06.362Z,0.25
2023-03-11T15:09:33.957Z,6.50
2023-03-11T15:12:05.851Z,5.00
2023-03-11T15:14:36.283Z,9.00
2023-03-11T15:17:41.127Z,5.75
2023-03-11T15:20:28.592Z,2.00
2023-03-11T15:22:58.274Z,1.00
2023-03-11T15:25:25.272Z,4.75
2023-03-11T15:27:52.307Z,3.00
2023-03-11T15:30:30.140Z,3.00
2023-03-11T15:32:58.750Z,8.75
2023-03-11T15:35:28.715Z,7.25
2023-03-11T15:38:24.026Z,2.00
2023-03-11T15:40:55.187Z,4.00
2023-03-11T15:43:30.060Z,8.25
2023-03-11T15:45:58.968Z,3.00
2023-03-11T15:48:26.018Z,1.00
2023-03-11T15:51:01.807Z,1.00
2023-03-11T15:53:30.538Z,2.00
2023-03-11T15:56:07.259Z,6.00
2023-03-11T15:58:36.692Z,6.00
2023-03-11T16:01:03.739Z,6.00
2023-03-11T16:03:31.557Z,3.00
2023-03-11T16:05:58.665Z,1.00
2023-03-11T16:08:25.778Z,1.25
2023-03-11T16:10:52.665Z,4.50
2023-03-11T16:13:19.678Z,5.00
2023-03-11T16:15:46.623Z,5.00
2023-03-11T16:18:13.718Z,8.50
2023-03-11T16:20:53.233Z,8.00
2023-03-11T16:23:26.547Z,10.00
2023-03-11T16:25:59.075Z,9.00
2023-03-11T16:28:26.105Z,1.50
2023-03-11T16:30:53.133Z,7.25
2023-03-11T16:36:16.404Z,3.50
2023-03-11T16:38:48.969Z,2.00
2023-03-11T16:41:17.771Z,3.00
2023-03-11T16:43:44.905Z,4.75
2023-03-11T16:46:12.129Z,3.00
2023-03-11T16:48:39.151Z,2.00
2023-03-11T16:51:06.558Z,5.00
2023-03-11T16:53:33.588Z,1.75
2023-03-11T16:56:00.751Z,1.00
2023-03-11T16:58:27.743Z,3.00
2023-03-11T17:00:54.812Z,1.75
2023-03-11T17:03:22.136Z,1.00
2023-03-11T17:05:49.393Z,1.00
2023-03-11T17:08:16.399Z,3.00
2023-03-11T17:10:50.763Z,2.00
2023-03-11T17:13:19.132Z,6.25
2023-03-11T17:15:46.310Z,6.75
2023-03-11T17:18:13.375Z,1.00
2023-03-11T17:20:41.530Z,2.50
2023-03-11T17:23:08.595Z,5.00
2023-03-11T17:25:40.079Z,3.00
2023-03-11T17:28:08.169Z,1.00
2023-03-11T17:30:37.698Z,1.00
2023-03-11T17:33:04.912Z,0.00
2023-03-11T17:35:32.051Z,3.00
2023-03-11T17:37:59.132Z,2.00
2023-03-11T17:40:26.051Z,1.75
2023-03-11T17:42:53.351Z,4.25
2023-03-11T17:45:20.244Z,6.00
2023-03-11T17:47:47.227Z,4.75
2023-03-11T17:50:14.227Z,7.00
2023-03-11T17:52:41.365Z,7.50
2023-03-11T17:55:08.866Z,8.00
2023-03-11T17:57:45.200Z,8.00
2023-03-11T18:00:14.723Z,3.25
2023-03-11T18:02:42.277Z,4.00
2023-03-11T18:05:09.469Z,1.00
2023-03-11T18:07:37.631Z,3.00
2023-03-11T18:10:05.701Z,3.00
2023-03-11T18:12:32.633Z,3.00
2023-03-11T18:14:59.585Z,4.00
2023-03-11T18:17:26.580Z,6.25
2023-03-11T18:19:53.678Z,6.00
2023-03-11T18:22:20.601Z,6.00
2023-03-11T18:24:47.598Z,2.00
2023-03-11T18:27:14.512Z,2.00
2023-03-11T18:29:41.455Z,4.75
2023-03-11T18:32:08.521Z,5.00
2023-03-11T18:34:37.844Z,3.00
2023-03-11T18:37:04.777Z,4.00
2023-03-11T18:39:31.887Z,5.00
2023-03-11T18:41:58.804Z,7.00
2023-03-11T18:44:25.915Z,4.00
2023-03-11T18:46:52.843Z,3.00
2023-03-11T18:49:19.864Z,4.75
2023-03-11T18:51:47.119Z,5.00
2023-03-11T18:54:14.149Z,7.25
2023-03-11T18:56:41.067Z,10.00
2023-03-11T18:59:09.815Z,4.25
2023-03-11T19:01:36.792Z,6.00
2023-03-11T19:04:03.948Z,10.75
2023-03-11T19:06:30.986Z,8.25
2023-03-11T19:08:58.080Z,10.25
2023-03-11T19:11:25.455Z,11.00
2023-03-11T19:13:52.852Z,9.00
2023-03-11T19:16:23.026Z,8.00
2023-03-11T19:18:50.323Z,9.50
2023-03-11T19:21:17.851Z,11.00
2023-03-11T19:23:45.774Z,8.75
2023-03-11T19:26:13.192Z,10.00
2023-03-11T19:28:40.246Z,12.00
2023-03-11T19:31:07.222Z,11.50
2023-03-11T19:33:34.724Z,8.75
2023-03-11T19:36:04.849Z,7.75
2023-03-11T19:38:33.159Z,8.00
2023-03-11T19:41:02.718Z,7.50
2023-03-11T19:43:30.174Z,6.00
2023-03-11T19:45:57.924Z,8.00
2023-03-11T19:48:25.306Z,6.00
2023-03-11T19:50:53.346Z,5.00
2023-03-11T19:53:23.027Z,8.25
2023-03-11T19:55:55.991Z,9.00
2023-03-11T19:58:27.955Z,11.75
2023-03-11T20:00:57.014Z,8.25
2023-03-11T20:03:24.202Z,3.00
2023-03-11T20:05:52.762Z,3.00
2023-03-11T20:08:21.695Z,5.25
2023-03-11T20:10:51.017Z,8.00
2023-03-11T20:13:19.830Z,7.00
2023-03-11T20:15:47.186Z,6.00
2023-03-11T20:18:14.633Z,4.00
2023-03-11T20:20:41.846Z,4.00
2023-03-11T20:23:09.055Z,5.75
2023-03-11T20:25:39.003Z,7.00
2023-03-11T20:28:06.138Z,4.00
2023-03-11T20:30:33.203Z,7.00
2023-03-11T20:33:00.177Z,7.50
2023-03-11T20:35:27.460Z,6.00
2023-03-11T20:37:54.527Z,6.00
2023-03-11T20:40:22.228Z,9.00
2023-03-11T20:42:49.333Z,4.25
2023-03-11T20:45:18.088Z,2.75
2023-03-11T20:47:45.033Z,8.00
2023-03-11T20:50:13.026Z,5.25
2023-03-11T20:52:40.185Z,6.25
2023-03-11T20:55:07.936Z,3.00
2023-03-11T20:57:35.297Z,7.00
2023-03-11T21:00:02.350Z,11.50
2023-03-11T21:02:29.335Z,7.25
2023-03-11T21:04:56.783Z,9.00
2023-03-11T21:07:23.753Z,5.50
2023-03-11T21:09:50.667Z,6.50
2023-03-11T21:12:17.703Z,7.00
2023-03-11T21:14:46.495Z,3.50
2023-03-11T21:17:13.581Z,6.75
2023-03-11T21:19:42.038Z,4.00
2023-03-11T21:22:09.770Z,10.25
2023-03-11T21:24:36.803Z,12.00
2023-03-11T21:27:03.868Z,11.00
2023-03-11T21:29:31.110Z,11.00
2023-03-11T21:31:58.130Z,12.00
2023-03-11T21:34:25.309Z,5.50
2023-03-11T21:36:52.294Z,2.00
2023-03-11T21:39:19.185Z,6.00
2023-03-11T21:41:46.119Z,3.75
2023-03-11T21:44:13.241Z,6.25
2023-03-11T21:46:40.271Z,12.75
2023-03-11T21:49:10.125Z,13.00
2023-03-11T21:51:37.083Z,7.50
2023-03-11T21:54:04.250Z,8.00
2023-03-11T21:56:31.539Z,6.00
2023-03-11T21:58:58.652Z,4.00
2023-03-11T22:01:25.828Z,4.00
2023-03-11T22:03:53.009Z,3.00
2023-03-11T22:06:23.517Z,9.75
2023-03-11T22:08:50.381Z,8.00
2023-03-11T22:11:18.838Z,6.00
2023-03-11T22:13:51.388Z,10.00
2023-03-11T22:16:20.908Z,4.75
2023-03-11T22:18:48.504Z,4.00
2023-03-11T22:21:16.940Z,11.00
2023-03-11T22:23:45.009Z,14.00
2023-03-11T22:26:12.731Z,12.00
2023-03-11T22:28:42.490Z,11.00
2023-03-11T22:31:11.976Z,8.00
2023-03-11T22:33:39.294Z,10.50
2023-03-11T22:36:07.165Z,8.00
2023-03-11T22:38:34.282Z,6.00
2023-03-11T22:41:05.208Z,10.00
2023-03-11T22:43:32.414Z,9.00
2023-03-11T22:46:01.757Z,7.75
2023-03-11T22:48:29.276Z,10.50
2023-03-11T22:50:56.822Z,10.25
2023-03-11T22:53:24.118Z,14.25
2023-03-11T22:55:52.375Z,10.00
2023-03-11T22:58:19.482Z,11.50
2023-03-11T23:00:46.993Z,9.50
2023-03-11T23:03:14.417Z,13.75
2023-03-11T23:05:41.330Z,13.00
2023-03-11T23:08:16.631Z,10.00
2023-03-11T23:10:45.988Z,8.00
2023-03-11T23:13:13.711Z,11.50
2023-03-11T23:15:43.083Z,12.50
2023-03-11T23:18:10.979Z,11.25
2023-03-11T23:20:40.283Z,8.00
2023-03-11T23:23:08.092Z,15.25
2023-03-11T23:25:36.202Z,14.00
2023-03-11T23:28:05.122Z,12.00
2023-03-11T23:30:32.548Z,14.25
2023-03-11T23:32:59.901Z,13.00
2023-03-11T23:35:26.938Z,13.00
2023-03-11T23:37:53.862Z,14.00
2023-03-11T23:40:20.947Z,12.00
2023-03-11T23:42:47.824Z,12.00
2023-03-11T23:45:17.263Z,10.75
2023-03-11T23:47:44.194Z,6.00
2023-03-11T23:50:11.473Z,14.25
2023-03-11T23:52:38.506Z,16.00
2023-03-11T23:55:05.917Z,15.00
2023-03-11T23:57:35.527Z,13.00
